AirNav   Everest Fuels
 
 736 users online  

NJ72 Hop Brook Farm Airport
Holmdel, New Jersey, USA

GOING TO HOLMDEL?


FAA INFORMATION EFFECTIVE 28 MARCH 2019

Location

FAA Identifier: NJ72
Lat/Long: 40-21-04.3930N / 074-10-52.5150W
40-21.073217N / 074-10.875250W
40.3512203 / -74.1812542
(estimated)
Elevation: 140 ft. / 43 m (estimated)
Variation: 12W (1985)
Time zone: UTC -4 (UTC -5 during Standard Time)
Zip code: 07733

Airport Operations

Airport use: Private use. Permission required prior to landing
Control tower: no
ARTCC: NEW YORK CENTER
FSS: MILLVILLE FLIGHT SERVICE STATION
Attendance: UNATNDD
Wind indicator: yes
Segmented circle: no

Airport Communications

WX AWOS-3PT at BLM (10 nm S): 121.625 (732-938-3330)
WX AWOS-3 at LDJ (16 nm N): 124.025 (908-862-7383)
WX AWOS-AV at N12 (17 nm S): 122.8 (732-363-6471)

Nearby radio navigation aids

VOR radial/distance  VOR name  Freq  Var
COLr348/2.6COLTS NECK VOR/DME115.4011W
RBVr068/16.9ROBBINSVILLE VORTAC113.8010W
CRIr231/20.4CANARSIE VOR/DME112.3011W
JFKr240/25.2KENNEDY VOR/DME115.9012W
GXUr055/28.0MC GUIRE VORTAC110.6012W
SBJr129/29.1SOLBERG VOR/DME112.9010W
LGAr221/29.6LA GUARDIA VOR/DME113.1012W
TEBr201/30.3TETERBORO VOR/DME108.4011W
ARDr090/33.8YARDLEY VOR/DME108.2010W
CYNr030/34.0COYLE VORTAC113.4010W
BWZr144/39.7BROADWAY VOR/DME114.2011W

 
NDB name  Hdg/Dist  Freq  Var  ID
LAKEHURST032/19.739611WNEL -. . .-..
CHATHAM167/26.025413WCAT -.-. .- -

Airport Services

Airframe service: NONE
Powerplant service: NONE

Runway Information

Runway 10/28

Dimensions: 2200 x 150 ft. / 671 x 46 m
Surface: turf
RUNWAY 10  RUNWAY 28
Traffic pattern: leftleft
Obstructions: plinestrees

Airport Ownership and Management from official FAA records

Ownership: Privately-owned
Owner: EDGAR L. RACHLIN
P.O. BOX 365
HOLMDEL, NJ 07733
Phone (732) 946-9700
Manager: ROBIN CRUZ MCCLEARN
P.O. BOX 365
HOLMDEL, NJ 07733
Phone (732) 946-9700

Airport Operational Statistics

Aircraft based on the field: 1
Single engine airplanes: 1
    

Instrument Procedures

There are no published instrument procedures at NJ72.

Some nearby airports with instrument procedures:

3N6 - Old Bridge Airport (8 nm W)
KBLM - Monmouth Executive Airport (10 nm S)
KLDJ - Linden Airport (16 nm N)
N12 - Lakewood Airport (17 nm S)
KNEL - Lakehurst Maxfield Field Airport (20 nm S)
 
Loc | Ops | Rwys | IFR | FBO | Links
Com | Nav | Svcs | Stats | Notes
Area around NJ72 (Hop Brook Farm Airport)
 
Road maps at: MapQuest Bing Google
 
Aerial photo
WARNING: Photo may not be current or correct
Aerial photo of NJ72 (Hop Brook Farm Airport)
Photo taken 21-Nov-2006

Do you have a better or more recent aerial photo of Hop Brook Farm Airport that you would like to share? If so, please send us your photo.

 
Sectional chart

 
Airport distance calculator
Flying to Hop Brook Farm Airport? Find the distance to fly.

From to NJ72

Sunrise and sunset
Times for 18-Apr-2019
 Local
(UTC-4)
 Zulu
(UTC)
Morning civil twilight05:4709:47
Sunrise06:1510:15
Sunset19:3723:37
Evening civil twilight20:0600:06

Current date and time
Zulu (UTC)  19-Apr-2019 03:35:56
Local (UTC-4)  18-Apr-2019 23:35:56
 
METAR
KBLM 
11nm S 
AWOS-3 121.625 732-938-3330
190256Z AUTO 19011G20KT 10SM CLR 18/14 A2991 RMK AO2 SLP132 T01780139 53003
KLDJ 
16nm N 
190315Z AUTO 00000KT 10SM CLR 19/13 A2987 RMK AO2 T01860125
KEWR 
20nm N 
190251Z 16004KT 10SM FEW100 FEW180 BKN250 18/12 A2987 RMK AO2 SLP116 T01780117 51005
KNEL 
21nm S 
190300Z AUTO 19013G20KT 10SM CLR 18/14 A2989 RMK AO2 RAB0218E0220 SLP118 P0000 60000 T01830144 53003 $
KJRB 
22nm N 
190256Z AUTO VRB05KT 10SM CLR 16/12 A2990 RMK AO2 SLP123 T01610122 51004
TAF
KEWR 
20nm N 
190229Z 1902/2006 18010KT P6SM SCT150 WS020/21045KT FM190800 20010KT P6SM SCT012 SCT150 FM191100 20014G20KT P6SM OVC012 PROB30 1912/1918 -SHRA FM191800 19015G21KT 4SM BR OVC010 WS020/20045KT PROB30 1918/1924 -SHRA OVC008 FM200000 18018G24KT 3SM -SHRA BR OVC010 WS020/19055KT
NOTAMs
Click for the latest NOTAMs
NOTAMs are issued by the DoD/FAA and will open in a separate window not controlled by AirNav.

 

 
 

Would you like to see your business listed on this page?

 If your business provides an interesting product or service to pilots, flight crews, aircraft, or users of the Hop Brook Farm Airport, you should consider listing it here.  To start the listing process, click on the button below
 
Add a business
 

Other Pages about Hop Brook Farm Airport

Update a link
 
Copyright © AirNav, LLC. All rights reserved. Privacy Policy  Contact